Lakki Marwat Weather



Lakki Marwat's Current Weather

Temprature 12.05o broken clouds

broken clouds

Rain: 0 %

Min Temprature12.05o
Max Temprature12.05o
Humidity54
Wind Speed0.73 m/h
Sun Rise07:08:38
Sun Set17:11:12
Current Time: 12-Dec-2019 01:27:34
Lat/Lon: 32.61, 70.91




Lakki Marwat's Geo Location



Lakki Marwat's Weather Forecast

Time Overall Temp Min Temp Max Temp Humidity Wind Speed Rain
12-Dec-2019 (Thu)
02:00:00 broken clouds 12.050 12.050 12.050 54 0.73 m/h 0 %
05:00:00 broken clouds 11.590 11.590 11.590 54 0.92 m/h 0 %
08:00:00 overcast clouds 13.630 13.630 13.630 49 1.08 m/h 0 %
11:00:00 overcast clouds 15.990 15.990 15.990 40 1.72 m/h 0 %
14:00:00 overcast clouds 16.770 16.770 16.770 40 4.21 m/h 0 %
17:00:00 light rain 13.090 13.090 13.090 63 4.78 m/h 13 %
20:00:00 light rain 13.290 13.290 13.290 62 0.66 m/h 6 %
23:00:00 light rain 13.440 13.440 13.440 61 1.52 m/h 13 %
13-Dec-2019 (Fri)
02:00:00 light rain 11.700 11.700 11.700 78 1.4 m/h 56 %
05:00:00 light rain 11.840 11.840 11.840 74 1.45 m/h 25 %
08:00:00 overcast clouds 11.700 11.700 11.700 70 1.19 m/h 0 %
11:00:00 scattered clouds 13.640 13.640 13.640 59 0.87 m/h 0 %
14:00:00 clear sky 15.450 15.450 15.450 49 0.85 m/h 0 %
17:00:00 clear sky 15.590 15.590 15.590 48 0.68 m/h 0 %
20:00:00 clear sky 13.910 13.910 13.910 57 0.93 m/h 0 %
23:00:00 clear sky 12.610 12.610 12.610 61 0.62 m/h 0 %
14-Dec-2019 (Sat)
02:00:00 clear sky 11.930 11.930 11.930 63 1.17 m/h 0 %
05:00:00 clear sky 10.720 10.720 10.720 68 0.55 m/h 0 %
08:00:00 clear sky 11.550 11.550 11.550 66 0.81 m/h 0 %
11:00:00 clear sky 14.930 14.930 14.930 52 0.28 m/h 0 %
14:00:00 light rain 16.080 16.080 16.080 49 1.19 m/h 31 %
17:00:00 light rain 14.650 14.650 14.650 57 1.95 m/h 44 %
20:00:00 scattered clouds 13.450 13.450 13.450 62 0.39 m/h 0 %
23:00:00 broken clouds 12.400 12.400 12.400 66 0.68 m/h 0 %
15-Dec-2019 (Sun)
02:00:00 broken clouds 11.100 11.100 11.100 71 0.48 m/h 0 %
05:00:00 scattered clouds 10.480 10.480 10.480 72 1.08 m/h 0 %
08:00:00 clear sky 10.950 10.950 10.950 68 1.04 m/h 0 %
11:00:00 clear sky 14.900 14.900 14.900 50 1.67 m/h 0 %
14:00:00 clear sky 16.950 16.950 16.950 38 2.17 m/h 0 %
17:00:00 clear sky 15.750 15.750 15.750 43 0.66 m/h 0 %
20:00:00 clear sky 13.730 13.730 13.730 49 0.91 m/h 0 %
23:00:00 clear sky 12.970 12.970 12.970 48 1.59 m/h 0 %
16-Dec-2019 (Mon)
02:00:00 clear sky 11.280 11.280 11.280 52 0.99 m/h 0 %
05:00:00 clear sky 10.290 10.290 10.290 54 0.87 m/h 0 %
08:00:00 clear sky 11.110 11.110 11.110 49 1.48 m/h 0 %
11:00:00 clear sky 15.640 15.640 15.640 27 1.86 m/h 0 %
14:00:00 clear sky 17.830 17.830 17.830 22 2.26 m/h 0 %
17:00:00 clear sky 15.830 15.830 15.830 29 1.27 m/h 0 %
20:00:00 clear sky 13.640 13.640 13.640 31 1.22 m/h 0 %
23:00:00 clear sky 13.110 13.110 13.110 29 2.29 m/h 0 %

Famous Cities (61)